sensor_id;sensor_type;location;lat;lon;timestamp;P1;durP1;ratioP1;P2;durP2;ratioP2
29002;SDS011;16102;57.138;-2.118;2022-07-23T00:00:21;0.85;;;0.50;;
29002;SDS011;16102;57.138;-2.118;2022-07-23T00:02:48;2.83;;;0.47;;
29002;SDS011;16102;57.138;-2.118;2022-07-23T00:05:15;0.60;;;0.40;;
29002;SDS011;16102;57.138;-2.118;2022-07-23T00:07:42;2.90;;;0.73;;
29002;SDS011;16102;57.138;-2.118;2022-07-23T00:10:09;1.90;;;0.50;;
29002;SDS011;16102;57.138;-2.118;2022-07-23T00:12:37;0.30;;;0.30;;
29002;SDS011;16102;57.138;-2.118;2022-07-23T00:15:17;1.45;;;0.90;;
29002;SDS011;16102;57.138;-2.118;2022-07-23T00:17:44;1.60;;;0.50;;
29002;SDS011;16102;57.138;-2.118;2022-07-23T00:20:11;0.60;;;0.40;;
29002;SDS011;16102;57.138;-2.118;2022-07-23T00:23:12;1.55;;;0.45;;
29002;SDS011;16102;57.138;-2.118;2022-07-23T00:25:34;0.75;;;0.30;;
29002;SDS011;16102;57.138;-2.118;2022-07-23T00:28:01;1.33;;;0.65;;
29002;SDS011;16102;57.138;-2.118;2022-07-23T00:30:29;1.70;;;0.50;;
29002;SDS011;16102;57.138;-2.118;2022-07-23T00:32:59;2.25;;;0.57;;
29002;SDS011;16102;57.138;-2.118;2022-07-23T00:35:33;0.80;;;0.40;;
29002;SDS011;16102;57.138;-2.118;2022-07-23T00:38:02;0.98;;;0.47;;
29002;SDS011;16102;57.138;-2.118;2022-07-23T00:40:31;1.58;;;0.60;;
29002;SDS011;16102;57.138;-2.118;2022-07-23T00:42:58;1.67;;;0.73;;
29002;SDS011;16102;57.138;-2.118;2022-07-23T00:45:26;2.30;;;1.02;;
29002;SDS011;16102;57.138;-2.118;2022-07-23T00:47:53;0.30;;;0.30;;
29002;SDS011;16102;57.138;-2.118;2022-07-23T00:50:20;1.60;;;0.60;;
29002;SDS011;16102;57.138;-2.118;2022-07-23T00:52:48;1.80;;;0.57;;
29002;SDS011;16102;57.138;-2.118;2022-07-23T00:55:15;2.50;;;1.38;;
29002;SDS011;16102;57.138;-2.118;2022-07-23T00:57:43;1.08;;;0.45;;
29002;SDS011;16102;57.138;-2.118;2022-07-23T01:00:11;2.63;;;0.50;;
29002;SDS011;16102;57.138;-2.118;2022-07-23T01:02:40;1.52;;;0.68;;
29002;SDS011;16102;57.138;-2.118;2022-07-23T01:05:08;2.75;;;0.60;;
29002;SDS011;16102;57.138;-2.118;2022-07-23T01:07:36;1.77;;;0.52;;
29002;SDS011;16102;57.138;-2.118;2022-07-23T01:10:03;1.77;;;0.47;;
29002;SDS011;16102;57.138;-2.118;2022-07-23T01:12:52;1.55;;;0.60;;
29002;SDS011;16102;57.138;-2.118;2022-07-23T01:15:19;1.35;;;0.40;;
29002;SDS011;16102;57.138;-2.118;2022-07-23T01:17:46;2.00;;;0.63;;
29002;SDS011;16102;57.138;-2.118;2022-07-23T01:20:13;0.88;;;0.50;;
29002;SDS011;16102;57.138;-2.118;2022-07-23T01:22:40;0.80;;;0.43;;
29002;SDS011;16102;57.138;-2.118;2022-07-23T01:25:07;0.70;;;0.45;;
29002;SDS011;16102;57.138;-2.118;2022-07-23T01:27:35;0.60;;;0.32;;
29002;SDS011;16102;57.138;-2.118;2022-07-23T01:30:03;4.05;;;1.13;;
29002;SDS011;16102;57.138;-2.118;2022-07-23T01:32:31;1.58;;;0.45;;
29002;SDS011;16102;57.138;-2.118;2022-07-23T01:34:58;0.68;;;0.60;;
29002;SDS011;16102;57.138;-2.118;2022-07-23T01:37:25;0.57;;;0.32;;
29002;SDS011;16102;57.138;-2.118;2022-07-23T01:39:52;0.45;;;0.45;;
29002;SDS011;16102;57.138;-2.118;2022-07-23T01:42:19;2.38;;;0.60;;
29002;SDS011;16102;57.138;-2.118;2022-07-23T01:44:47;1.60;;;0.50;;
29002;SDS011;16102;57.138;-2.118;2022-07-23T01:47:14;0.63;;;0.50;;
29002;SDS011;16102;57.138;-2.118;2022-07-23T01:49:41;0.82;;;0.57;;
29002;SDS011;16102;57.138;-2.118;2022-07-23T01:52:08;0.93;;;0.60;;
29002;SDS011;16102;57.138;-2.118;2022-07-23T01:54:37;0.93;;;0.65;;
29002;SDS011;16102;57.138;-2.118;2022-07-23T01:57:06;2.00;;;0.80;;
29002;SDS011;16102;57.138;-2.118;2022-07-23T01:59:34;0.50;;;0.50;;
29002;SDS011;16102;57.138;-2.118;2022-07-23T02:02:01;1.85;;;0.82;;
29002;SDS011;16102;57.138;-2.118;2022-07-23T02:04:30;0.70;;;0.60;;
29002;SDS011;16102;57.138;-2.118;2022-07-23T02:06:57;1.95;;;0.98;;
29002;SDS011;16102;57.138;-2.118;2022-07-23T02:09:24;2.38;;;0.82;;
29002;SDS011;16102;57.138;-2.118;2022-07-23T02:11:51;0.63;;;0.43;;
29002;SDS011;16102;57.138;-2.118;2022-07-23T02:14:18;0.52;;;0.52;;
29002;SDS011;16102;57.138;-2.118;2022-07-23T02:16:45;0.90;;;0.60;;
29002;SDS011;16102;57.138;-2.118;2022-07-23T02:19:12;0.90;;;0.43;;
29002;SDS011;16102;57.138;-2.118;2022-07-23T02:21:40;1.70;;;0.50;;
29002;SDS011;16102;57.138;-2.118;2022-07-23T02:24:07;2.45;;;0.55;;
29002;SDS011;16102;57.138;-2.118;2022-07-23T02:26:34;0.65;;;0.40;;
29002;SDS011;16102;57.138;-2.118;2022-07-23T02:29:02;1.13;;;0.40;;
29002;SDS011;16102;57.138;-2.118;2022-07-23T02:31:30;0.55;;;0.52;;
29002;SDS011;16102;57.138;-2.118;2022-07-23T02:33:58;1.38;;;0.60;;
29002;SDS011;16102;57.138;-2.118;2022-07-23T02:36:26;1.55;;;0.60;;
29002;SDS011;16102;57.138;-2.118;2022-07-23T02:38:53;1.15;;;0.40;;
29002;SDS011;16102;57.138;-2.118;2022-07-23T02:41:20;0.35;;;0.35;;
29002;SDS011;16102;57.138;-2.118;2022-07-23T02:43:47;1.30;;;0.55;;
29002;SDS011;16102;57.138;-2.118;2022-07-23T02:46:14;0.45;;;0.45;;
29002;SDS011;16102;57.138;-2.118;2022-07-23T02:48:41;0.90;;;0.40;;
29002;SDS011;16102;57.138;-2.118;2022-07-23T02:51:08;0.60;;;0.40;;
29002;SDS011;16102;57.138;-2.118;2022-07-23T02:53:40;0.88;;;0.50;;
29002;SDS011;16102;57.138;-2.118;2022-07-23T02:56:07;0.70;;;0.40;;
29002;SDS011;16102;57.138;-2.118;2022-07-23T02:58:34;1.55;;;0.50;;
29002;SDS011;16102;57.138;-2.118;2022-07-23T03:01:02;0.77;;;0.40;;
29002;SDS011;16102;57.138;-2.118;2022-07-23T03:03:29;0.88;;;0.45;;
29002;SDS011;16102;57.138;-2.118;2022-07-23T03:05:56;1.88;;;0.50;;
29002;SDS011;16102;57.138;-2.118;2022-07-23T03:08:23;0.90;;;0.50;;
29002;SDS011;16102;57.138;-2.118;2022-07-23T03:10:50;0.40;;;0.20;;
29002;SDS011;16102;57.138;-2.118;2022-07-23T03:13:17;1.00;;;0.60;;
29002;SDS011;16102;57.138;-2.118;2022-07-23T03:15:44;3.63;;;0.63;;
29002;SDS011;16102;57.138;-2.118;2022-07-23T03:18:12;0.82;;;0.50;;
29002;SDS011;16102;57.138;-2.118;2022-07-23T03:20:39;1.05;;;0.60;;
29002;SDS011;16102;57.138;-2.118;2022-07-23T03:23:06;0.63;;;0.40;;
29002;SDS011;16102;57.138;-2.118;2022-07-23T03:25:33;0.73;;;0.45;;
29002;SDS011;16102;57.138;-2.118;2022-07-23T03:28:00;0.70;;;0.45;;
29002;SDS011;16102;57.138;-2.118;2022-07-23T03:30:27;0.50;;;0.50;;
29002;SDS011;16102;57.138;-2.118;2022-07-23T03:32:54;0.68;;;0.45;;
29002;SDS011;16102;57.138;-2.118;2022-07-23T03:35:21;0.93;;;0.38;;
29002;SDS011;16102;57.138;-2.118;2022-07-23T03:37:48;1.70;;;1.20;;
29002;SDS011;16102;57.138;-2.118;2022-07-23T03:40:15;0.98;;;0.90;;
29002;SDS011;16102;57.138;-2.118;2022-07-23T03:42:42;1.38;;;0.38;;
29002;SDS011;16102;57.138;-2.118;2022-07-23T03:45:10;0.52;;;0.20;;
29002;SDS011;16102;57.138;-2.118;2022-07-23T03:47:37;1.17;;;0.50;;
29002;SDS011;16102;57.138;-2.118;2022-07-23T03:50:05;0.85;;;0.35;;
29002;SDS011;16102;57.138;-2.118;2022-07-23T03:52:33;2.15;;;0.68;;
29002;SDS011;16102;57.138;-2.118;2022-07-23T03:55:00;1.55;;;0.57;;
29002;SDS011;16102;57.138;-2.118;2022-07-23T03:57:28;0.50;;;0.50;;
29002;SDS011;16102;57.138;-2.118;2022-07-23T03:59:55;1.38;;;0.50;;
29002;SDS011;16102;57.138;-2.118;2022-07-23T04:02:22;0.82;;;0.57;;
29002;SDS011;16102;57.138;-2.118;2022-07-23T04:04:49;0.93;;;0.50;;
29002;SDS011;16102;57.138;-2.118;2022-07-23T04:07:16;1.80;;;0.55;;
29002;SDS011;16102;57.138;-2.118;2022-07-23T04:09:44;1.48;;;0.63;;
29002;SDS011;16102;57.138;-2.118;2022-07-23T04:12:11;3.05;;;0.57;;
29002;SDS011;16102;57.138;-2.118;2022-07-23T04:14:39;1.40;;;0.40;;
29002;SDS011;16102;57.138;-2.118;2022-07-23T04:17:06;1.75;;;0.50;;
29002;SDS011;16102;57.138;-2.118;2022-07-23T04:19:33;0.93;;;0.50;;
29002;SDS011;16102;57.138;-2.118;2022-07-23T04:22:02;2.08;;;0.70;;
29002;SDS011;16102;57.138;-2.118;2022-07-23T04:24:30;2.15;;;0.55;;
29002;SDS011;16102;57.138;-2.118;2022-07-23T04:26:57;2.40;;;0.93;;
29002;SDS011;16102;57.138;-2.118;2022-07-23T04:29:24;1.02;;;0.50;;
29002;SDS011;16102;57.138;-2.118;2022-07-23T04:31:51;2.13;;;0.70;;
29002;SDS011;16102;57.138;-2.118;2022-07-23T04:34:18;1.35;;;0.50;;
29002;SDS011;16102;57.138;-2.118;2022-07-23T04:36:45;1.15;;;0.70;;
29002;SDS011;16102;57.138;-2.118;2022-07-23T04:39:13;1.02;;;0.50;;
29002;SDS011;16102;57.138;-2.118;2022-07-23T04:41:40;0.45;;;0.40;;
29002;SDS011;16102;57.138;-2.118;2022-07-23T04:44:07;1.25;;;0.50;;
29002;SDS011;16102;57.138;-2.118;2022-07-23T04:46:34;2.42;;;0.55;;
29002;SDS011;16102;57.138;-2.118;2022-07-23T04:49:01;0.40;;;0.40;;
29002;SDS011;16102;57.138;-2.118;2022-07-23T04:51:29;0.65;;;0.50;;
29002;SDS011;16102;57.138;-2.118;2022-07-23T04:53:56;0.70;;;0.50;;
29002;SDS011;16102;57.138;-2.118;2022-07-23T04:56:23;3.15;;;0.65;;
29002;SDS011;16102;57.138;-2.118;2022-07-23T04:58:50;3.17;;;0.70;;
29002;SDS011;16102;57.138;-2.118;2022-07-23T05:01:17;0.82;;;0.43;;
29002;SDS011;16102;57.138;-2.118;2022-07-23T05:03:44;0.88;;;0.50;;
29002;SDS011;16102;57.138;-2.118;2022-07-23T05:06:11;0.63;;;0.30;;
29002;SDS011;16102;57.138;-2.118;2022-07-23T05:08:38;1.65;;;0.88;;
29002;SDS011;16102;57.138;-2.118;2022-07-23T05:11:06;2.67;;;0.93;;
29002;SDS011;16102;57.138;-2.118;2022-07-23T05:13:33;0.65;;;0.50;;
29002;SDS011;16102;57.138;-2.118;2022-07-23T05:16:00;1.20;;;0.50;;
29002;SDS011;16102;57.138;-2.118;2022-07-23T05:18:27;3.67;;;1.13;;
29002;SDS011;16102;57.138;-2.118;2022-07-23T05:20:54;1.25;;;0.60;;
29002;SDS011;16102;57.138;-2.118;2022-07-23T05:23:21;5.05;;;0.73;;
29002;SDS011;16102;57.138;-2.118;2022-07-23T05:25:48;2.10;;;0.50;;
29002;SDS011;16102;57.138;-2.118;2022-07-23T05:28:16;3.78;;;0.63;;
29002;SDS011;16102;57.138;-2.118;2022-07-23T05:30:47;1.20;;;0.60;;
29002;SDS011;16102;57.138;-2.118;2022-07-23T05:33:15;2.67;;;0.70;;
29002;SDS011;16102;57.138;-2.118;2022-07-23T05:35:44;2.65;;;0.70;;
29002;SDS011;16102;57.138;-2.118;2022-07-23T05:38:11;1.40;;;0.57;;
29002;SDS011;16102;57.138;-2.118;2022-07-23T05:40:38;3.92;;;0.80;;
29002;SDS011;16102;57.138;-2.118;2022-07-23T05:43:06;1.85;;;0.40;;
29002;SDS011;16102;57.138;-2.118;2022-07-23T05:45:33;2.30;;;0.75;;
29002;SDS011;16102;57.138;-2.118;2022-07-23T05:48:00;0.63;;;0.43;;
29002;SDS011;16102;57.138;-2.118;2022-07-23T05:50:27;1.08;;;0.63;;
29002;SDS011;16102;57.138;-2.118;2022-07-23T05:52:54;4.20;;;0.95;;
29002;SDS011;16102;57.138;-2.118;2022-07-23T05:55:21;2.45;;;0.68;;
29002;SDS011;16102;57.138;-2.118;2022-07-23T05:57:48;1.35;;;0.50;;
29002;SDS011;16102;57.138;-2.118;2022-07-23T06:00:16;0.85;;;0.32;;
29002;SDS011;16102;57.138;-2.118;2022-07-23T06:02:43;2.45;;;0.50;;
29002;SDS011;16102;57.138;-2.118;2022-07-23T06:05:10;0.85;;;0.50;;
29002;SDS011;16102;57.138;-2.118;2022-07-23T06:07:37;1.38;;;0.35;;
29002;SDS011;16102;57.138;-2.118;2022-07-23T06:10:04;1.13;;;0.40;;
29002;SDS011;16102;57.138;-2.118;2022-07-23T06:12:32;0.85;;;0.40;;
29002;SDS011;16102;57.138;-2.118;2022-07-23T06:15:00;2.58;;;0.52;;
29002;SDS011;16102;57.138;-2.118;2022-07-23T06:17:27;3.63;;;0.45;;
29002;SDS011;16102;57.138;-2.118;2022-07-23T06:19:55;1.10;;;0.90;;
29002;SDS011;16102;57.138;-2.118;2022-07-23T06:22:22;1.73;;;0.40;;
29002;SDS011;16102;57.138;-2.118;2022-07-23T06:24:50;1.80;;;0.35;;
29002;SDS011;16102;57.138;-2.118;2022-07-23T06:27:18;1.85;;;0.32;;
29002;SDS011;16102;57.138;-2.118;2022-07-23T06:29:51;0.47;;;0.47;;
29002;SDS011;16102;57.138;-2.118;2022-07-23T06:32:18;0.63;;;0.20;;
29002;SDS011;16102;57.138;-2.118;2022-07-23T06:34:46;2.05;;;0.40;;
29002;SDS011;16102;57.138;-2.118;2022-07-23T06:37:14;4.40;;;0.93;;
29002;SDS011;16102;57.138;-2.118;2022-07-23T06:39:42;1.65;;;0.65;;
29002;SDS011;16102;57.138;-2.118;2022-07-23T06:42:10;2.65;;;0.65;;
29002;SDS011;16102;57.138;-2.118;2022-07-23T06:44:38;1.58;;;0.52;;
29002;SDS011;16102;57.138;-2.118;2022-07-23T06:47:05;4.05;;;0.95;;
29002;SDS011;16102;57.138;-2.118;2022-07-23T06:49:33;5.30;;;0.70;;
29002;SDS011;16102;57.138;-2.118;2022-07-23T06:52:00;0.47;;;0.30;;
29002;SDS011;16102;57.138;-2.118;2022-07-23T06:54:27;3.30;;;0.80;;
29002;SDS011;16102;57.138;-2.118;2022-07-23T06:56:54;1.58;;;0.60;;
29002;SDS011;16102;57.138;-2.118;2022-07-23T06:59:21;3.10;;;0.40;;
29002;SDS011;16102;57.138;-2.118;2022-07-23T07:01:48;1.13;;;0.60;;
29002;SDS011;16102;57.138;-2.118;2022-07-23T07:04:15;1.05;;;0.60;;
29002;SDS011;16102;57.138;-2.118;2022-07-23T07:06:42;0.47;;;0.30;;
29002;SDS011;16102;57.138;-2.118;2022-07-23T07:09:09;1.38;;;0.30;;
29002;SDS011;16102;57.138;-2.118;2022-07-23T07:11:37;5.28;;;0.75;;
29002;SDS011;16102;57.138;-2.118;2022-07-23T07:14:04;0.40;;;0.30;;
29002;SDS011;16102;57.138;-2.118;2022-07-23T07:16:31;0.95;;;0.30;;
29002;SDS011;16102;57.138;-2.118;2022-07-23T07:18:58;1.13;;;0.30;;
29002;SDS011;16102;57.138;-2.118;2022-07-23T07:21:26;1.30;;;0.50;;
29002;SDS011;16102;57.138;-2.118;2022-07-23T07:23:54;2.10;;;0.52;;
29002;SDS011;16102;57.138;-2.118;2022-07-23T07:26:21;1.98;;;0.50;;
29002;SDS011;16102;57.138;-2.118;2022-07-23T07:28:48;1.23;;;0.60;;
29002;SDS011;16102;57.138;-2.118;2022-07-23T07:31:15;3.40;;;0.73;;
29002;SDS011;16102;57.138;-2.118;2022-07-23T07:33:43;0.65;;;0.32;;
29002;SDS011;16102;57.138;-2.118;2022-07-23T07:36:10;1.20;;;0.35;;
29002;SDS011;16102;57.138;-2.118;2022-07-23T07:38:44;1.45;;;0.35;;
29002;SDS011;16102;57.138;-2.118;2022-07-23T07:41:12;1.55;;;0.30;;
29002;SDS011;16102;57.138;-2.118;2022-07-23T07:43:40;1.20;;;0.40;;
29002;SDS011;16102;57.138;-2.118;2022-07-23T07:46:07;1.25;;;0.50;;
29002;SDS011;16102;57.138;-2.118;2022-07-23T07:48:37;2.72;;;1.08;;
29002;SDS011;16102;57.138;-2.118;2022-07-23T07:51:04;2.33;;;0.70;;
29002;SDS011;16102;57.138;-2.118;2022-07-23T07:53:32;2.15;;;0.57;;
29002;SDS011;16102;57.138;-2.118;2022-07-23T07:55:59;1.70;;;0.70;;
29002;SDS011;16102;57.138;-2.118;2022-07-23T07:58:26;2.05;;;0.32;;
29002;SDS011;16102;57.138;-2.118;2022-07-23T08:00:53;4.15;;;0.65;;
29002;SDS011;16102;57.138;-2.118;2022-07-23T08:03:21;2.67;;;0.95;;
29002;SDS011;16102;57.138;-2.118;2022-07-23T08:05:48;2.30;;;0.40;;
29002;SDS011;16102;57.138;-2.118;2022-07-23T08:08:15;5.03;;;1.30;;
29002;SDS011;16102;57.138;-2.118;2022-07-23T08:10:42;0.90;;;0.43;;
29002;SDS011;16102;57.138;-2.118;2022-07-23T08:13:12;3.72;;;0.75;;
29002;SDS011;16102;57.138;-2.118;2022-07-23T08:15:41;2.30;;;0.65;;
29002;SDS011;16102;57.138;-2.118;2022-07-23T08:18:09;1.05;;;0.85;;
29002;SDS011;16102;57.138;-2.118;2022-07-23T08:20:36;1.70;;;0.65;;
29002;SDS011;16102;57.138;-2.118;2022-07-23T08:23:04;1.30;;;0.50;;
29002;SDS011;16102;57.138;-2.118;2022-07-23T08:25:36;4.45;;;1.27;;
29002;SDS011;16102;57.138;-2.118;2022-07-23T08:28:07;1.90;;;0.60;;
29002;SDS011;16102;57.138;-2.118;2022-07-23T08:30:36;2.63;;;0.85;;
29002;SDS011;16102;57.138;-2.118;2022-07-23T08:36:00;0.47;;;0.47;;
29002;SDS011;16102;57.138;-2.118;2022-07-23T08:38:29;1.65;;;0.52;;
29002;SDS011;16102;57.138;-2.118;2022-07-23T08:40:57;2.47;;;0.82;;
29002;SDS011;16102;57.138;-2.118;2022-07-23T08:43:29;10.13;;;1.23;;
29002;SDS011;16102;57.138;-2.118;2022-07-23T08:45:58;3.97;;;0.73;;
29002;SDS011;16102;57.138;-2.118;2022-07-23T08:48:31;5.47;;;1.17;;
29002;SDS011;16102;57.138;-2.118;2022-07-23T08:51:01;5.90;;;1.35;;
29002;SDS011;16102;57.138;-2.118;2022-07-23T08:53:29;1.40;;;0.57;;
29002;SDS011;16102;57.138;-2.118;2022-07-23T08:55:59;6.32;;;0.85;;
29002;SDS011;16102;57.138;-2.118;2022-07-23T08:58:28;1.95;;;0.90;;
29002;SDS011;16102;57.138;-2.118;2022-07-23T09:00:56;5.00;;;0.93;;
29002;SDS011;16102;57.138;-2.118;2022-07-23T09:03:25;3.63;;;1.20;;
29002;SDS011;16102;57.138;-2.118;2022-07-23T09:05:55;5.55;;;2.22;;
29002;SDS011;16102;57.138;-2.118;2022-07-23T09:08:24;2.70;;;0.90;;
29002;SDS011;16102;57.138;-2.118;2022-07-23T09:18:59;4.00;;;1.13;;
29002;SDS011;16102;57.138;-2.118;2022-07-23T09:21:35;1.65;;;0.90;;
29002;SDS011;16102;57.138;-2.118;2022-07-23T09:24:09;3.33;;;0.90;;
29002;SDS011;16102;57.138;-2.118;2022-07-23T09:26:38;5.47;;;1.20;;
29002;SDS011;16102;57.138;-2.118;2022-07-23T09:29:08;3.55;;;0.80;;
29002;SDS011;16102;57.138;-2.118;2022-07-23T09:31:51;8.27;;;2.22;;
29002;SDS011;16102;57.138;-2.118;2022-07-23T09:36:51;4.60;;;1.00;;
29002;SDS011;16102;57.138;-2.118;2022-07-23T09:39:30;3.33;;;1.67;;
29002;SDS011;16102;57.138;-2.118;2022-07-23T09:44:55;4.97;;;1.15;;
29002;SDS011;16102;57.138;-2.118;2022-07-23T09:47:23;8.68;;;2.13;;
29002;SDS011;16102;57.138;-2.118;2022-07-23T09:52:28;1.45;;;1.10;;
29002;SDS011;16102;57.138;-2.118;2022-07-23T09:55:02;4.90;;;1.63;;
29002;SDS011;16102;57.138;-2.118;2022-07-23T09:57:33;5.55;;;1.73;;
29002;SDS011;16102;57.138;-2.118;2022-07-23T10:00:02;9.80;;;2.78;;
29002;SDS011;16102;57.138;-2.118;2022-07-23T10:02:32;4.60;;;2.28;;
29002;SDS011;16102;57.138;-2.118;2022-07-23T10:05:01;13.75;;;2.70;;
29002;SDS011;16102;57.138;-2.118;2022-07-23T10:07:32;6.47;;;2.30;;
29002;SDS011;16102;57.138;-2.118;2022-07-23T10:10:01;4.50;;;1.48;;
29002;SDS011;16102;57.138;-2.118;2022-07-23T10:12:30;4.22;;;2.00;;
29002;SDS011;16102;57.138;-2.118;2022-07-23T10:15:13;3.40;;;1.25;;
29002;SDS011;16102;57.138;-2.118;2022-07-23T10:17:41;4.43;;;1.23;;
29002;SDS011;16102;57.138;-2.118;2022-07-23T10:20:08;3.60;;;1.15;;
29002;SDS011;16102;57.138;-2.118;2022-07-23T10:22:40;3.35;;;0.90;;
29002;SDS011;16102;57.138;-2.118;2022-07-23T10:41:37;3.33;;;1.65;;
29002;SDS011;16102;57.138;-2.118;2022-07-23T10:44:07;1.80;;;1.20;;
29002;SDS011;16102;57.138;-2.118;2022-07-23T10:47:21;2.05;;;0.60;;
29002;SDS011;16102;57.138;-2.118;2022-07-23T10:49:49;2.78;;;0.82;;
29002;SDS011;16102;57.138;-2.118;2022-07-23T10:52:20;3.25;;;1.05;;
29002;SDS011;16102;57.138;-2.118;2022-07-23T10:54:54;3.83;;;0.90;;
29002;SDS011;16102;57.138;-2.118;2022-07-23T10:57:27;3.65;;;1.38;;
29002;SDS011;16102;57.138;-2.118;2022-07-23T11:02:33;2.92;;;1.05;;
29002;SDS011;16102;57.138;-2.118;2022-07-23T11:07:36;2.22;;;0.70;;
29002;SDS011;16102;57.138;-2.118;2022-07-23T11:10:33;1.63;;;0.52;;
29002;SDS011;16102;57.138;-2.118;2022-07-23T11:31:53;1.95;;;0.60;;
29002;SDS011;16102;57.138;-2.118;2022-07-23T11:34:33;3.17;;;1.20;;
29002;SDS011;16102;57.138;-2.118;2022-07-23T11:37:09;3.33;;;1.23;;
29002;SDS011;16102;57.138;-2.118;2022-07-23T11:39:38;6.13;;;1.25;;
29002;SDS011;16102;57.138;-2.118;2022-07-23T11:42:06;4.03;;;1.58;;
29002;SDS011;16102;57.138;-2.118;2022-07-23T11:44:38;4.35;;;1.20;;
29002;SDS011;16102;57.138;-2.118;2022-07-23T11:47:06;2.05;;;1.00;;
29002;SDS011;16102;57.138;-2.118;2022-07-23T11:49:35;4.68;;;1.38;;
29002;SDS011;16102;57.138;-2.118;2022-07-23T11:52:04;4.78;;;1.70;;
29002;SDS011;16102;57.138;-2.118;2022-07-23T11:54:34;4.57;;;1.63;;
29002;SDS011;16102;57.138;-2.118;2022-07-23T11:57:05;5.35;;;2.30;;
29002;SDS011;16102;57.138;-2.118;2022-07-23T11:59:33;2.55;;;1.10;;
29002;SDS011;16102;57.138;-2.118;2022-07-23T12:02:03;5.07;;;1.70;;
29002;SDS011;16102;57.138;-2.118;2022-07-23T12:04:41;1.65;;;0.80;;
29002;SDS011;16102;57.138;-2.118;2022-07-23T12:10:18;1.98;;;1.15;;
29002;SDS011;16102;57.138;-2.118;2022-07-23T12:12:49;3.47;;;1.40;;
29002;SDS011;16102;57.138;-2.118;2022-07-23T12:15:19;3.67;;;1.02;;
29002;SDS011;16102;57.138;-2.118;2022-07-23T12:17:49;4.05;;;1.50;;
29002;SDS011;16102;57.138;-2.118;2022-07-23T12:20:18;8.18;;;2.10;;
29002;SDS011;16102;57.138;-2.118;2022-07-23T12:22:48;3.35;;;2.05;;
29002;SDS011;16102;57.138;-2.118;2022-07-23T12:25:19;2.88;;;1.33;;
29002;SDS011;16102;57.138;-2.118;2022-07-23T12:27:57;3.38;;;1.60;;
29002;SDS011;16102;57.138;-2.118;2022-07-23T12:30:28;3.53;;;1.52;;
29002;SDS011;16102;57.138;-2.118;2022-07-23T12:33:01;3.45;;;1.23;;
29002;SDS011;16102;57.138;-2.118;2022-07-23T12:35:36;4.50;;;2.00;;
29002;SDS011;16102;57.138;-2.118;2022-07-23T12:38:14;3.30;;;1.25;;
29002;SDS011;16102;57.138;-2.118;2022-07-23T12:40:47;4.75;;;1.50;;
29002;SDS011;16102;57.138;-2.118;2022-07-23T12:43:27;2.83;;;1.17;;
29002;SDS011;16102;57.138;-2.118;2022-07-23T12:48:35;2.42;;;1.30;;
29002;SDS011;16102;57.138;-2.118;2022-07-23T12:54:05;4.82;;;1.73;;
29002;SDS011;16102;57.138;-2.118;2022-07-23T12:56:34;4.13;;;1.80;;
29002;SDS011;16102;57.138;-2.118;2022-07-23T13:01:34;5.55;;;1.95;;
29002;SDS011;16102;57.138;-2.118;2022-07-23T13:04:10;4.30;;;1.40;;
29002;SDS011;16102;57.138;-2.118;2022-07-23T13:06:43;2.10;;;1.00;;
29002;SDS011;16102;57.138;-2.118;2022-07-23T13:09:27;3.45;;;1.90;;
29002;SDS011;16102;57.138;-2.118;2022-07-23T13:11:58;1.48;;;1.20;;
29002;SDS011;16102;57.138;-2.118;2022-07-23T13:14:26;1.52;;;1.17;;
29002;SDS011;16102;57.138;-2.118;2022-07-23T13:16:54;4.50;;;1.55;;
29002;SDS011;16102;57.138;-2.118;2022-07-23T13:19:25;8.27;;;2.30;;
29002;SDS011;16102;57.138;-2.118;2022-07-23T13:21:53;5.95;;;1.92;;
29002;SDS011;16102;57.138;-2.118;2022-07-23T13:24:20;6.50;;;2.05;;
29002;SDS011;16102;57.138;-2.118;2022-07-23T13:26:48;6.13;;;2.65;;
29002;SDS011;16102;57.138;-2.118;2022-07-23T13:29:18;3.00;;;1.20;;
29002;SDS011;16102;57.138;-2.118;2022-07-23T13:31:45;4.00;;;1.73;;
29002;SDS011;16102;57.138;-2.118;2022-07-23T13:34:14;2.47;;;1.27;;
29002;SDS011;16102;57.138;-2.118;2022-07-23T13:36:41;6.00;;;2.10;;
29002;SDS011;16102;57.138;-2.118;2022-07-23T13:39:10;7.78;;;3.47;;
29002;SDS011;16102;57.138;-2.118;2022-07-23T13:41:37;5.07;;;2.38;;
29002;SDS011;16102;57.138;-2.118;2022-07-23T13:44:05;4.45;;;2.63;;
29002;SDS011;16102;57.138;-2.118;2022-07-23T13:46:33;5.57;;;2.83;;
29002;SDS011;16102;57.138;-2.118;2022-07-23T13:49:01;7.28;;;1.77;;
29002;SDS011;16102;57.138;-2.118;2022-07-23T13:51:32;3.90;;;2.53;;
29002;SDS011;16102;57.138;-2.118;2022-07-23T13:53:59;2.53;;;1.90;;
29002;SDS011;16102;57.138;-2.118;2022-07-23T13:56:26;5.22;;;1.90;;
29002;SDS011;16102;57.138;-2.118;2022-07-23T13:58:53;6.93;;;3.78;;
29002;SDS011;16102;57.138;-2.118;2022-07-23T14:01:20;5.05;;;2.90;;
29002;SDS011;16102;57.138;-2.118;2022-07-23T14:03:48;7.13;;;3.10;;
29002;SDS011;16102;57.138;-2.118;2022-07-23T14:06:15;3.22;;;1.92;;
29002;SDS011;16102;57.138;-2.118;2022-07-23T14:08:43;6.25;;;3.95;;
29002;SDS011;16102;57.138;-2.118;2022-07-23T14:11:11;10.38;;;3.45;;
29002;SDS011;16102;57.138;-2.118;2022-07-23T14:13:39;3.50;;;2.38;;
29002;SDS011;16102;57.138;-2.118;2022-07-23T14:16:06;4.70;;;2.13;;
29002;SDS011;16102;57.138;-2.118;2022-07-23T14:18:34;3.58;;;2.45;;
29002;SDS011;16102;57.138;-2.118;2022-07-23T14:21:01;3.63;;;2.17;;
29002;SDS011;16102;57.138;-2.118;2022-07-23T14:23:29;4.45;;;2.25;;
29002;SDS011;16102;57.138;-2.118;2022-07-23T14:25:56;3.95;;;2.30;;
29002;SDS011;16102;57.138;-2.118;2022-07-23T14:28:23;5.25;;;2.17;;
29002;SDS011;16102;57.138;-2.118;2022-07-23T14:30:50;4.28;;;2.60;;
29002;SDS011;16102;57.138;-2.118;2022-07-23T14:33:18;7.85;;;3.15;;
29002;SDS011;16102;57.138;-2.118;2022-07-23T14:35:46;5.22;;;2.58;;
29002;SDS011;16102;57.138;-2.118;2022-07-23T14:38:13;7.72;;;2.65;;
29002;SDS011;16102;57.138;-2.118;2022-07-23T14:40:41;4.60;;;2.72;;
29002;SDS011;16102;57.138;-2.118;2022-07-23T14:43:08;7.22;;;2.90;;
29002;SDS011;16102;57.138;-2.118;2022-07-23T14:45:37;5.32;;;2.78;;
29002;SDS011;16102;57.138;-2.118;2022-07-23T14:48:06;6.68;;;3.78;;
29002;SDS011;16102;57.138;-2.118;2022-07-23T14:50:34;6.85;;;3.60;;
29002;SDS011;16102;57.138;-2.118;2022-07-23T14:53:03;7.85;;;3.83;;
29002;SDS011;16102;57.138;-2.118;2022-07-23T14:55:31;6.10;;;4.35;;
29002;SDS011;16102;57.138;-2.118;2022-07-23T14:57:59;3.78;;;2.42;;
29002;SDS011;16102;57.138;-2.118;2022-07-23T15:00:26;7.20;;;2.67;;
29002;SDS011;16102;57.138;-2.118;2022-07-23T15:02:55;8.00;;;4.32;;
29002;SDS011;16102;57.138;-2.118;2022-07-23T15:05:23;7.55;;;4.38;;
29002;SDS011;16102;57.138;-2.118;2022-07-23T15:07:52;3.28;;;2.45;;
29002;SDS011;16102;57.138;-2.118;2022-07-23T15:10:19;6.30;;;3.00;;
29002;SDS011;16102;57.138;-2.118;2022-07-23T15:12:48;5.38;;;3.10;;
29002;SDS011;16102;57.138;-2.118;2022-07-23T15:15:16;6.85;;;2.83;;
29002;SDS011;16102;57.138;-2.118;2022-07-23T15:17:44;3.92;;;2.85;;
29002;SDS011;16102;57.138;-2.118;2022-07-23T15:20:11;8.75;;;4.07;;
29002;SDS011;16102;57.138;-2.118;2022-07-23T15:22:41;6.40;;;3.33;;
29002;SDS011;16102;57.138;-2.118;2022-07-23T15:25:08;3.65;;;2.65;;
29002;SDS011;16102;57.138;-2.118;2022-07-23T15:27:37;4.88;;;2.20;;
29002;SDS011;16102;57.138;-2.118;2022-07-23T15:30:05;5.97;;;2.72;;
29002;SDS011;16102;57.138;-2.118;2022-07-23T15:32:34;8.63;;;3.80;;
29002;SDS011;16102;57.138;-2.118;2022-07-23T15:35:01;7.70;;;3.50;;
29002;SDS011;16102;57.138;-2.118;2022-07-23T15:37:31;3.95;;;2.85;;
29002;SDS011;16102;57.138;-2.118;2022-07-23T15:40:00;6.75;;;4.13;;
29002;SDS011;16102;57.138;-2.118;2022-07-23T15:42:30;8.48;;;3.53;;
29002;SDS011;16102;57.138;-2.118;2022-07-23T15:44:58;3.35;;;2.90;;
29002;SDS011;16102;57.138;-2.118;2022-07-23T15:47:25;5.68;;;3.10;;
29002;SDS011;16102;57.138;-2.118;2022-07-23T15:49:52;3.55;;;2.10;;
29002;SDS011;16102;57.138;-2.118;2022-07-23T15:52:21;4.35;;;2.28;;